createdAt,value
2018-06-16T00:00:21.469Z,0.00
2018-06-16T00:01:21.395Z,0.00
2018-06-16T00:02:21.319Z,0.00
2018-06-16T00:03:21.244Z,0.00
2018-06-16T00:04:21.156Z,0.00
2018-06-16T00:05:21.080Z,0.00
2018-06-16T00:06:21.009Z,0.00
2018-06-16T00:07:20.932Z,0.00
2018-06-16T00:08:20.869Z,0.00
2018-06-16T00:09:20.770Z,0.00
2018-06-16T00:10:20.701Z,0.00
2018-06-16T00:11:20.620Z,0.00
2018-06-16T00:12:20.550Z,0.00
2018-06-16T00:13:20.458Z,0.00
2018-06-16T00:14:20.382Z,0.00
2018-06-16T00:15:20.306Z,0.00
2018-06-16T00:16:20.232Z,0.00
2018-06-16T00:17:20.204Z,0.00
2018-06-16T00:18:20.071Z,0.00
2018-06-16T00:20:02.122Z,0.00
2018-06-16T00:21:02.034Z,0.00
2018-06-16T00:22:01.958Z,0.00
2018-06-16T00:23:01.883Z,0.00
2018-06-16T00:24:01.808Z,0.00
2018-06-16T00:25:01.733Z,0.00
2018-06-16T00:26:01.647Z,0.00
2018-06-16T00:27:01.572Z,0.00
2018-06-16T00:28:01.501Z,0.00
2018-06-16T00:29:01.421Z,0.00
2018-06-16T00:30:01.338Z,0.00
2018-06-16T00:31:01.259Z,0.00
2018-06-16T00:32:01.183Z,0.00
2018-06-16T00:33:01.108Z,0.00
2018-06-16T00:34:01.034Z,0.00
2018-06-16T00:35:00.958Z,0.00
2018-06-16T00:36:00.872Z,0.00
2018-06-16T00:37:00.797Z,0.00
2018-06-16T00:38:00.723Z,0.00
2018-06-16T00:39:00.635Z,0.00
2018-06-16T00:40:00.559Z,0.00
2018-06-16T00:41:00.486Z,0.00
2018-06-16T00:42:00.409Z,0.00
2018-06-16T00:43:00.323Z,0.00
2018-06-16T00:44:00.248Z,0.00
2018-06-16T00:45:00.178Z,0.00
2018-06-16T00:46:00.100Z,0.00
2018-06-16T00:47:00.012Z,0.00
2018-06-16T00:47:59.935Z,0.00
2018-06-16T00:48:59.862Z,0.00
2018-06-16T00:49:59.785Z,0.00
2018-06-16T00:50:59.709Z,0.00
2018-06-16T00:51:59.623Z,0.00
2018-06-16T00:52:59.555Z,0.00
2018-06-16T00:53:59.474Z,0.00
2018-06-16T00:54:59.399Z,0.00
2018-06-16T00:55:59.311Z,0.00
2018-06-16T00:56:59.249Z,0.00
2018-06-16T00:57:59.160Z,0.00
2018-06-16T00:58:59.085Z,0.00
2018-06-16T00:59:58.999Z,0.00
2018-06-16T01:00:58.924Z,0.00
2018-06-16T01:01:58.850Z,0.00
2018-06-16T01:02:58.775Z,0.00
2018-06-16T01:03:58.687Z,0.00
2018-06-16T01:04:58.611Z,0.00
2018-06-16T01:05:58.537Z,0.00
2018-06-16T01:06:58.461Z,0.00
2018-06-16T01:07:58.386Z,0.00
2018-06-16T01:08:58.300Z,0.00
2018-06-16T01:09:58.225Z,0.00
2018-06-16T01:10:58.150Z,0.00
2018-06-16T01:11:58.074Z,0.00
2018-06-16T01:12:57.988Z,0.00
2018-06-16T01:13:57.912Z,0.00
2018-06-16T01:14:57.837Z,0.00
2018-06-16T01:15:57.779Z,0.00
2018-06-16T01:16:57.676Z,0.00
2018-06-16T01:17:57.601Z,0.00
2018-06-16T01:18:57.526Z,0.00
2018-06-16T01:19:57.440Z,0.00
2018-06-16T01:20:57.363Z,0.00
2018-06-16T01:21:57.288Z,0.00
2018-06-16T01:22:57.213Z,0.00
2018-06-16T01:23:57.138Z,0.00
2018-06-16T01:24:57.056Z,0.00
2018-06-16T01:25:56.978Z,0.00
2018-06-16T01:26:56.902Z,0.00
2018-06-16T01:27:56.829Z,0.00
2018-06-16T01:28:56.740Z,0.00
2018-06-16T01:29:56.664Z,0.00
2018-06-16T01:30:56.593Z,0.00
2018-06-16T01:31:56.514Z,0.00
2018-06-16T01:32:56.428Z,0.00
2018-06-16T01:33:56.353Z,0.00
2018-06-16T01:34:56.279Z,0.00
2018-06-16T01:35:56.191Z,0.00
2018-06-16T01:36:56.116Z,0.00
2018-06-16T01:37:56.040Z,0.00
2018-06-16T01:38:55.965Z,0.00
2018-06-16T01:39:55.878Z,0.00
2018-06-16T01:40:55.807Z,0.00
2018-06-16T01:41:55.732Z,0.00
2018-06-16T01:42:55.653Z,0.00
2018-06-16T01:43:55.566Z,0.00
2018-06-16T01:44:55.490Z,0.00
2018-06-16T01:45:55.416Z,0.00
2018-06-16T01:46:55.343Z,0.00
2018-06-16T01:47:55.255Z,0.00
2018-06-16T01:48:55.182Z,0.00
2018-06-16T01:49:55.105Z,0.00
2018-06-16T01:50:55.029Z,0.00
2018-06-16T01:51:54.945Z,0.00
2018-06-16T01:52:54.869Z,0.00
2018-06-16T01:53:54.792Z,0.00
2018-06-16T01:54:54.717Z,0.00
2018-06-16T01:55:54.640Z,0.00
2018-06-16T01:56:54.556Z,0.00
2018-06-16T01:57:54.481Z,0.00
2018-06-16T01:58:54.408Z,0.00
2018-06-16T01:59:54.317Z,0.00
2018-06-16T02:00:54.243Z,0.00
2018-06-16T02:01:54.168Z,0.00
2018-06-16T02:02:54.082Z,4.00
2018-06-16T02:03:54.006Z,4.00
2018-06-16T02:04:53.935Z,4.00
2018-06-16T02:05:53.857Z,0.00
2018-06-16T02:06:53.768Z,4.00
2018-06-16T02:07:53.694Z,4.00
2018-06-16T02:08:53.618Z,4.00
2018-06-16T02:09:53.544Z,4.00
2018-06-16T02:10:53.457Z,4.00
2018-06-16T02:11:53.382Z,8.00
2018-06-16T02:12:53.312Z,4.00
2018-06-16T02:13:53.236Z,8.00
2018-06-16T02:14:53.144Z,8.00
2018-06-16T02:15:53.069Z,8.00
2018-06-16T02:16:52.995Z,8.00
2018-06-16T02:17:52.907Z,12.00
2018-06-16T02:18:52.833Z,12.00
2018-06-16T02:19:52.757Z,12.00
2018-06-16T02:20:52.683Z,12.00
2018-06-16T02:21:52.595Z,16.00
2018-06-16T02:22:52.534Z,20.00
2018-06-16T02:23:52.445Z,20.00
2018-06-16T02:24:52.358Z,20.00
2018-06-16T02:25:52.284Z,24.00
2018-06-16T02:26:52.208Z,28.00
2018-06-16T02:27:52.134Z,28.00
2018-06-16T02:28:52.046Z,32.00
2018-06-16T02:29:51.971Z,36.00
2018-06-16T02:30:51.908Z,40.00
2018-06-16T02:31:51.833Z,44.00
2018-06-16T02:32:51.734Z,44.00
2018-06-16T02:33:51.659Z,48.00
2018-06-16T02:34:51.589Z,56.00
2018-06-16T02:35:51.510Z,60.00
2018-06-16T02:36:51.422Z,64.00
2018-06-16T02:37:51.347Z,68.00
2018-06-16T02:38:51.271Z,76.00
2018-06-16T02:39:51.196Z,80.00
2018-06-16T02:40:51.109Z,88.00
2018-06-16T02:41:51.038Z,96.00
2018-06-16T02:42:50.961Z,104.00
2018-06-16T02:43:50.885Z,112.00
2018-06-16T02:44:50.796Z,116.00
2018-06-16T02:45:50.722Z,124.00
2018-06-16T02:46:50.649Z,132.00
2018-06-16T02:47:50.564Z,140.00
2018-06-16T02:48:50.485Z,152.00
2018-06-16T02:49:50.411Z,160.00
2018-06-16T02:50:50.336Z,168.00
2018-06-16T02:51:50.248Z,180.00
2018-06-16T02:52:50.203Z,188.00
2018-06-16T02:53:50.098Z,200.00
2018-06-16T02:54:50.013Z,208.00
2018-06-16T02:55:49.937Z,220.00
2018-06-16T02:56:49.861Z,228.00
2018-06-16T02:57:49.786Z,240.00
2018-06-16T02:58:49.698Z,252.00
2018-06-16T02:59:49.623Z,268.00
2018-06-16T03:00:49.551Z,276.00
2018-06-16T03:01:49.477Z,292.00
2018-06-16T03:02:49.387Z,304.00
2018-06-16T03:03:49.314Z,312.00
2018-06-16T03:04:49.237Z,324.00
2018-06-16T03:05:49.151Z,332.00
2018-06-16T03:06:49.073Z,340.00
2018-06-16T03:07:49.012Z,352.00
2018-06-16T03:08:48.926Z,364.00
2018-06-16T03:09:48.840Z,380.00
2018-06-16T03:10:48.762Z,396.00
2018-06-16T03:11:48.692Z,412.00
2018-06-16T03:12:48.613Z,428.00
2018-06-16T03:13:48.526Z,456.00
2018-06-16T03:14:48.449Z,472.00
2018-06-16T03:15:48.383Z,492.00
2018-06-16T03:16:48.304Z,512.00
2018-06-16T03:17:48.214Z,528.00
2018-06-16T03:18:48.143Z,540.00
2018-06-16T03:19:48.063Z,556.00
2018-06-16T03:20:47.990Z,560.00
2018-06-16T03:21:47.901Z,576.00
2018-06-16T03:22:47.825Z,584.00
2018-06-16T03:23:47.764Z,600.00
2018-06-16T03:24:47.676Z,620.00
2018-06-16T03:25:47.640Z,660.00
2018-06-16T03:26:47.515Z,708.00
2018-06-16T03:27:47.440Z,752.00
2018-06-16T03:28:47.364Z,780.00
2018-06-16T03:29:47.278Z,788.00
2018-06-16T03:30:47.205Z,796.00
2018-06-16T03:31:47.126Z,800.00
2018-06-16T03:32:47.044Z,816.00
2018-06-16T03:33:46.965Z,836.00
2018-06-16T03:34:46.893Z,860.00
2018-06-16T03:35:46.818Z,896.00
2018-06-16T03:36:46.728Z,944.00
2018-06-16T03:37:46.653Z,988.00
2018-06-16T03:38:46.578Z,1020.00
2018-06-16T03:39:46.503Z,1052.00
2018-06-16T03:40:46.416Z,1080.00
2018-06-16T03:41:46.341Z,1104.00
2018-06-16T03:42:46.268Z,1112.00
2018-06-16T03:43:46.229Z,1108.00
2018-06-16T03:44:46.103Z,1108.00
2018-06-16T03:45:46.028Z,1116.00
2018-06-16T03:46:45.967Z,1120.00
2018-06-16T03:47:45.879Z,1136.00
2018-06-16T03:48:45.797Z,1156.00
2018-06-16T03:49:45.717Z,1188.00
2018-06-16T03:50:45.642Z,1228.00
2018-06-16T03:51:45.568Z,1268.00
2018-06-16T03:52:45.479Z,1304.00
2018-06-16T03:53:45.404Z,1332.00
2018-06-16T03:54:45.329Z,1360.00
2018-06-16T03:55:45.258Z,1380.00
2018-06-16T03:56:45.167Z,1392.00
2018-06-16T03:57:45.094Z,1416.00
2018-06-16T03:58:45.020Z,1456.00
2018-06-16T03:59:44.943Z,1488.00
2018-06-16T04:00:44.855Z,1512.00
2018-06-16T04:01:44.810Z,1528.00
2018-06-16T04:02:44.707Z,1552.00
2018-06-16T04:03:44.630Z,1580.00
2018-06-16T04:04:44.554Z,1608.00
2018-06-16T04:05:44.469Z,1620.00
2018-06-16T04:06:44.394Z,1636.00
2018-06-16T04:07:44.319Z,1676.00
2018-06-16T04:08:44.232Z,1720.00
2018-06-16T04:09:44.155Z,1760.00
2018-06-16T04:10:44.096Z,1792.00
2018-06-16T04:11:44.007Z,1816.00
2018-06-16T04:12:43.931Z,1844.00
2018-06-16T04:13:43.845Z,1880.00
2018-06-16T04:14:43.769Z,1924.00
2018-06-16T04:15:43.744Z,1976.00
2018-06-16T04:16:43.642Z,2032.00
2018-06-16T04:17:43.546Z,2104.00
2018-06-16T04:18:43.456Z,2176.00
2018-06-16T04:19:43.381Z,2240.00
2018-06-16T04:20:43.307Z,2284.00
2018-06-16T04:21:43.231Z,2316.00
2018-06-16T04:22:43.145Z,2340.00
2018-06-16T04:23:43.070Z,2392.00
2018-06-16T04:24:42.998Z,2472.00
2018-06-16T04:25:42.921Z,2556.00
2018-06-16T04:26:42.833Z,2636.00
2018-06-16T04:27:42.760Z,2700.00
2018-06-16T04:28:42.683Z,2748.00
2018-06-16T04:29:42.609Z,2788.00
2018-06-16T04:30:42.534Z,2800.00
2018-06-16T04:31:42.446Z,2804.00
2018-06-16T04:32:42.371Z,2784.00
2018-06-16T04:33:42.296Z,2804.00
2018-06-16T04:34:42.271Z,2848.00
2018-06-16T04:35:42.135Z,2896.00
2018-06-16T04:36:42.071Z,2912.00
2018-06-16T04:37:41.983Z,2928.00
2018-06-16T04:38:41.912Z,2960.00
2018-06-16T04:39:41.837Z,3024.00
2018-06-16T04:40:41.749Z,3100.00
2018-06-16T04:41:41.671Z,3160.00
2018-06-16T04:42:41.597Z,3200.00
2018-06-16T04:43:41.522Z,3220.00
2018-06-16T04:44:41.447Z,3232.00
2018-06-16T04:45:41.439Z,3248.00
2018-06-16T04:46:41.284Z,3284.00
2018-06-16T04:47:41.210Z,3344.00
2018-06-16T04:48:41.135Z,3416.00
2018-06-16T04:49:41.093Z,3480.00
2018-06-16T04:50:40.973Z,3528.00
2018-06-16T04:51:40.899Z,3560.00
2018-06-16T04:52:40.829Z,3588.00
2018-06-16T04:53:40.750Z,3652.00
2018-06-16T04:54:40.694Z,3776.00
2018-06-16T04:55:40.598Z,3904.00
2018-06-16T04:56:40.510Z,3992.00
2018-06-16T04:57:40.438Z,4020.00
2018-06-16T04:58:40.361Z,4072.00
2018-06-16T04:59:40.288Z,4156.00
2018-06-16T05:00:40.224Z,4224.00
2018-06-16T05:01:40.126Z,4268.00
2018-06-16T05:02:40.051Z,4308.00
2018-06-16T05:03:39.974Z,4348.00
2018-06-16T05:04:39.900Z,4412.00
2018-06-16T05:05:39.824Z,4492.00
2018-06-16T05:06:39.750Z,4588.00
2018-06-16T05:07:39.675Z,4708.00
2018-06-16T05:08:39.645Z,4808.00
2018-06-16T05:09:39.512Z,4880.00
2018-06-16T05:10:39.436Z,4928.00
2018-06-16T05:11:39.364Z,4992.00
2018-06-16T05:12:39.289Z,5076.00
2018-06-16T05:13:39.212Z,5096.00
2018-06-16T05:14:39.126Z,5052.00
2018-06-16T05:15:39.053Z,5016.00
2018-06-16T05:16:38.975Z,5032.00
2018-06-16T05:17:38.910Z,5088.00
2018-06-16T05:18:38.825Z,5204.00
2018-06-16T05:19:38.751Z,5384.00
2018-06-16T05:20:38.676Z,5520.00
2018-06-16T05:21:38.589Z,5584.00
2018-06-16T05:22:38.513Z,5560.00
2018-06-16T05:23:38.438Z,5548.00
2018-06-16T05:24:38.363Z,5624.00
2018-06-16T05:25:38.313Z,5688.00
2018-06-16T05:26:38.213Z,5716.00
2018-06-16T05:27:38.139Z,5768.00
2018-06-16T05:28:38.064Z,5844.00
2018-06-16T05:29:37.977Z,5936.00
2018-06-16T05:30:37.902Z,6020.00
2018-06-16T05:31:37.827Z,6104.00
2018-06-16T05:32:37.752Z,6224.00
2018-06-16T05:33:37.678Z,6316.00
2018-06-16T05:34:37.603Z,6468.00
2018-06-16T05:35:37.534Z,6576.00
2018-06-16T05:36:37.455Z,6596.00
2018-06-16T05:37:37.377Z,6648.00
2018-06-16T05:38:37.303Z,6724.00
2018-06-16T05:39:37.215Z,6776.00
2018-06-16T05:40:37.139Z,6820.00
2018-06-16T05:41:37.068Z,6836.00
2018-06-16T05:42:37.003Z,6864.00
2018-06-16T05:43:36.914Z,6928.00
2018-06-16T05:44:36.840Z,6996.00
2018-06-16T05:45:36.767Z,7088.00
2018-06-16T05:46:36.703Z,7172.00
2018-06-16T05:47:36.615Z,7288.00
2018-06-16T05:48:36.541Z,7400.00
2018-06-16T05:49:36.465Z,7496.00
2018-06-16T05:50:36.379Z,7560.00
2018-06-16T05:51:36.304Z,7604.00
2018-06-16T05:52:36.235Z,7588.00
2018-06-16T05:53:36.156Z,7580.00
2018-06-16T05:54:36.079Z,7596.00
2018-06-16T05:55:36.005Z,7632.00
2018-06-16T05:56:35.931Z,7716.00
2018-06-16T05:57:35.855Z,7872.00
2018-06-16T05:58:35.785Z,8052.00
2018-06-16T05:59:35.705Z,8204.00
2018-06-16T06:00:35.676Z,8304.00
2018-06-16T06:01:35.555Z,8380.00
2018-06-16T06:02:35.479Z,8412.00
2018-06-16T06:03:35.405Z,8468.00
2018-06-16T06:04:35.318Z,8512.00
2018-06-16T06:05:35.255Z,8600.00
2018-06-16T06:06:35.168Z,8732.00
2018-06-16T06:07:35.095Z,8868.00
2018-06-16T06:08:35.018Z,9016.00
2018-06-16T06:09:34.942Z,9108.00
2018-06-16T06:10:34.885Z,9148.00
2018-06-16T06:11:34.792Z,9116.00
2018-06-16T06:12:34.718Z,9068.00
2018-06-16T06:13:34.644Z,9100.00
2018-06-16T06:14:34.571Z,9188.00
2018-06-16T06:15:34.493Z,9280.00
2018-06-16T06:16:34.418Z,9308.00
2018-06-16T06:17:34.342Z,9244.00
2018-06-16T06:18:34.268Z,9132.00
2018-06-16T06:19:34.194Z,9032.00
2018-06-16T06:20:34.119Z,8960.00
2018-06-16T06:21:34.044Z,8884.00
2018-06-16T06:22:33.969Z,8736.00
2018-06-16T06:23:33.896Z,8860.00
2018-06-16T06:24:33.819Z,8896.00
2018-06-16T06:25:33.745Z,9028.00
2018-06-16T06:26:33.669Z,9252.00
2018-06-16T06:27:33.607Z,9488.00
2018-06-16T06:28:33.523Z,9636.00
2018-06-16T06:29:33.444Z,9688.00
2018-06-16T06:30:33.370Z,9672.00
2018-06-16T06:31:33.307Z,9628.00
2018-06-16T06:32:33.220Z,9596.00
2018-06-16T06:33:33.145Z,9588.00
2018-06-16T06:34:33.071Z,9672.00
2018-06-16T06:35:32.995Z,9876.00
2018-06-16T06:36:32.920Z,10112.00
2018-06-16T06:37:32.845Z,10316.00
2018-06-16T06:38:32.770Z,10428.00
2018-06-16T06:39:32.696Z,10368.00
2018-06-16T06:40:32.621Z,10316.00
2018-06-16T06:41:32.546Z,10284.00
2018-06-16T06:42:32.471Z,10284.00
2018-06-16T06:43:32.474Z,10300.00
2018-06-16T06:44:32.334Z,10268.00
2018-06-16T06:45:32.246Z,10272.00
2018-06-16T06:46:32.171Z,10288.00
2018-06-16T06:47:32.096Z,10372.00
2018-06-16T06:48:32.010Z,10468.00
2018-06-16T06:49:31.935Z,10636.00
2018-06-16T06:50:31.860Z,10804.00
2018-06-16T06:51:31.796Z,10916.00
2018-06-16T06:52:31.712Z,10952.00
2018-06-16T06:53:31.635Z,10924.00
2018-06-16T06:54:31.560Z,10892.00
2018-06-16T06:55:31.498Z,10936.00
2018-06-16T06:56:31.412Z,11004.00
2018-06-16T06:57:31.336Z,11076.00
2018-06-16T06:58:31.273Z,11128.00
2018-06-16T06:59:31.197Z,11236.00
2018-06-16T07:00:31.111Z,11292.00
2018-06-16T07:01:31.036Z,11304.00
2018-06-16T07:02:30.961Z,11312.00
2018-06-16T07:03:30.887Z,11348.00
2018-06-16T07:04:30.812Z,11328.00
2018-06-16T07:05:30.736Z,11236.00
2018-06-16T07:06:30.662Z,11148.00
2018-06-16T07:07:30.598Z,11176.00
2018-06-16T07:08:30.519Z,11328.00
2018-06-16T07:09:30.469Z,11756.00
2018-06-16T07:10:30.402Z,12140.00
2018-06-16T07:11:30.300Z,12644.00
2018-06-16T07:12:30.224Z,11868.00
2018-06-16T07:13:30.149Z,12156.00
2018-06-16T07:14:30.093Z,12576.00
2018-06-16T07:15:29.999Z,12780.00
2018-06-16T07:16:29.925Z,12864.00
2018-06-16T07:17:29.851Z,12900.00
2018-06-16T07:18:29.775Z,13132.00
2018-06-16T07:19:29.700Z,13348.00
2018-06-16T07:20:29.627Z,13724.00
2018-06-16T07:21:29.553Z,14288.00
2018-06-16T07:22:29.476Z,13996.00
2018-06-16T07:23:29.459Z,14136.00
2018-06-16T07:24:29.326Z,14104.00
2018-06-16T07:25:29.265Z,14124.00
2018-06-16T07:26:29.200Z,13368.00
2018-06-16T07:27:29.115Z,13136.00
2018-06-16T07:28:29.046Z,12804.00
2018-06-16T07:29:28.965Z,12308.00
2018-06-16T07:30:28.894Z,11820.00
2018-06-16T07:31:28.814Z,11424.00
2018-06-16T07:32:28.743Z,11244.00
2018-06-16T07:33:28.676Z,11156.00
2018-06-16T07:34:28.615Z,11184.00
2018-06-16T07:35:28.527Z,10960.00
2018-06-16T07:36:28.452Z,10660.00
2018-06-16T07:37:28.377Z,10272.00
2018-06-16T07:38:28.303Z,10096.00
2018-06-16T07:39:28.227Z,10636.00
2018-06-16T07:40:28.152Z,16164.00
2018-06-16T07:41:28.134Z,16992.00
2018-06-16T07:42:28.018Z,14776.00
2018-06-16T07:43:27.940Z,18560.00
2018-06-16T07:44:27.866Z,15104.00
2018-06-16T07:45:27.821Z,16260.00
2018-06-16T07:46:27.716Z,14960.00
2018-06-16T07:47:27.670Z,20288.00
2018-06-16T07:48:27.579Z,16992.00
2018-06-16T07:49:27.503Z,16896.00
2018-06-16T07:50:27.428Z,16328.00
2018-06-16T07:51:27.365Z,15996.00
2018-06-16T07:52:27.294Z,16152.00
2018-06-16T07:53:27.216Z,16832.00
2018-06-16T07:54:27.141Z,16376.00
2018-06-16T07:55:27.079Z,16960.00
2018-06-16T07:56:27.004Z,19104.00
2018-06-16T07:57:26.929Z,17472.00
2018-06-16T07:58:26.869Z,17312.00
2018-06-16T07:59:26.795Z,17504.00
2018-06-16T08:00:26.718Z,17568.00
2018-06-16T08:01:26.655Z,17696.00
2018-06-16T08:02:26.579Z,18784.00
2018-06-16T08:03:26.504Z,18528.00
2018-06-16T08:04:26.442Z,17984.00
2018-06-16T08:05:26.371Z,17824.00
2018-06-16T08:06:26.305Z,17216.00
2018-06-16T08:07:26.231Z,17120.00
2018-06-16T08:08:26.154Z,17696.00
2018-06-16T08:09:26.094Z,17664.00
2018-06-16T08:10:26.019Z,16896.00
2018-06-16T08:11:25.955Z,16896.00
2018-06-16T08:12:25.894Z,17536.00
2018-06-16T08:13:25.815Z,18080.00
2018-06-16T08:14:25.743Z,17920.00
2018-06-16T08:15:25.669Z,18720.00
2018-06-16T08:16:25.606Z,18336.00
2018-06-16T08:17:25.531Z,18432.00
2018-06-16T08:18:25.469Z,18528.00
2018-06-16T08:19:25.395Z,18528.00
2018-06-16T08:20:25.324Z,18720.00
2018-06-16T08:21:25.256Z,18752.00
2018-06-16T08:22:25.183Z,18112.00
2018-06-16T08:23:25.123Z,18112.00
2018-06-16T08:24:25.045Z,18368.00
2018-06-16T08:25:24.982Z,18240.00
2018-06-16T08:26:24.907Z,18048.00
2018-06-16T08:27:24.845Z,18048.00
2018-06-16T08:28:24.772Z,18304.00
2018-06-16T08:29:24.707Z,19008.00
2018-06-16T08:30:24.632Z,18912.00
2018-06-16T08:31:24.571Z,18880.00
2018-06-16T08:32:24.496Z,18944.00
2018-06-16T08:33:24.433Z,19008.00
2018-06-16T08:34:24.359Z,18944.00
2018-06-16T08:35:24.301Z,18880.00
2018-06-16T08:36:24.221Z,19104.00
2018-06-16T08:37:24.159Z,18816.00
2018-06-16T08:38:24.083Z,18656.00
2018-06-16T08:39:24.021Z,18624.00
2018-06-16T08:40:23.946Z,18656.00
2018-06-16T08:41:23.883Z,18208.00
2018-06-16T08:42:23.808Z,20192.00
2018-06-16T08:43:23.780Z,20640.00
2018-06-16T08:44:23.672Z,19968.00
2018-06-16T08:45:23.598Z,20384.00
2018-06-16T08:46:23.534Z,20224.00
2018-06-16T08:47:23.461Z,20736.00
2018-06-16T08:48:23.398Z,21728.00
2018-06-16T08:49:23.324Z,21376.00
2018-06-16T08:50:23.259Z,22432.00
2018-06-16T08:51:23.184Z,20672.00
2018-06-16T08:52:23.123Z,20384.00
2018-06-16T08:53:23.047Z,21472.00
2018-06-16T08:54:22.985Z,20224.00
2018-06-16T08:55:23.035Z,21664.00
2018-06-16T08:56:22.849Z,22368.00
2018-06-16T08:57:22.776Z,21120.00
2018-06-16T08:58:22.710Z,21120.00
2018-06-16T08:59:22.636Z,20928.00
2018-06-16T09:00:22.574Z,21504.00
2018-06-16T09:01:22.510Z,20448.00
2018-06-16T09:02:22.435Z,19936.00
2018-06-16T09:03:22.373Z,21216.00
2018-06-16T09:04:22.299Z,20736.00
2018-06-16T09:05:22.237Z,24288.00
2018-06-16T09:06:22.161Z,25888.00
2018-06-16T09:07:22.099Z,24192.00
2018-06-16T09:08:22.041Z,22528.00
2018-06-16T09:09:21.966Z,24512.00
2018-06-16T09:10:21.899Z,22464.00
2018-06-16T09:11:21.824Z,21952.00
2018-06-16T09:12:21.761Z,20512.00
2018-06-16T09:13:21.700Z,21696.00
2018-06-16T09:14:21.624Z,21920.00
2018-06-16T09:15:21.561Z,27968.00
2018-06-16T09:16:21.500Z,25504.00
2018-06-16T09:17:21.476Z,24704.00
2018-06-16T09:18:21.362Z,23552.00
2018-06-16T09:19:21.301Z,21920.00
2018-06-16T09:20:21.224Z,22176.00
2018-06-16T09:21:21.161Z,25600.00
2018-06-16T09:22:21.101Z,29056.00
2018-06-16T09:23:21.039Z,23648.00
2018-06-16T09:24:20.962Z,23968.00
2018-06-16T09:25:20.900Z,22080.00
2018-06-16T09:26:20.839Z,22240.00
2018-06-16T09:27:20.767Z,21088.00
2018-06-16T09:28:20.706Z,22176.00
2018-06-16T09:29:20.639Z,23424.00
2018-06-16T09:30:20.576Z,23712.00
2018-06-16T09:31:20.518Z,24288.00
2018-06-16T09:32:20.438Z,24960.00
2018-06-16T09:33:20.376Z,21952.00
2018-06-16T09:34:20.313Z,22528.00
2018-06-16T09:35:20.253Z,14632.00
2018-06-16T09:36:20.248Z,12820.00
2018-06-16T09:37:20.114Z,12648.00
2018-06-16T09:38:20.052Z,14304.00
2018-06-16T09:39:19.977Z,22560.00
2018-06-16T09:40:19.917Z,29984.00
2018-06-16T09:41:19.853Z,23296.00
2018-06-16T09:42:19.778Z,22272.00
2018-06-16T09:43:19.713Z,25344.00
2018-06-16T09:44:19.653Z,22400.00
2018-06-16T09:45:19.578Z,20704.00
2018-06-16T09:46:19.518Z,21376.00
2018-06-16T09:47:19.452Z,24544.00
2018-06-16T09:48:19.401Z,25696.00
2018-06-16T09:49:19.317Z,21344.00
2018-06-16T09:50:19.253Z,28032.00
2018-06-16T09:51:19.191Z,30720.00
2018-06-16T09:52:19.117Z,29504.00
2018-06-16T09:53:19.053Z,26176.00
2018-06-16T09:54:18.990Z,34368.00
2018-06-16T09:55:18.916Z,35968.00
2018-06-16T09:56:18.853Z,20544.00
2018-06-16T09:57:18.790Z,28928.00
2018-06-16T09:58:18.729Z,27968.00
2018-06-16T09:59:18.665Z,25760.00
2018-06-16T10:00:18.590Z,29600.00
2018-06-16T10:01:18.528Z,31712.00
2018-06-16T10:02:18.466Z,37856.00
2018-06-16T10:03:18.471Z,35232.00
2018-06-16T10:04:18.329Z,32000.00
2018-06-16T10:05:18.266Z,31104.00
2018-06-16T10:06:18.204Z,27360.00
2018-06-16T10:07:18.142Z,19456.00
2018-06-16T10:08:18.080Z,15412.00
2018-06-16T10:09:18.007Z,14480.00
2018-06-16T10:10:17.942Z,14892.00
2018-06-16T10:11:17.880Z,15396.00
2018-06-16T10:12:17.817Z,14420.00
2018-06-16T10:13:17.743Z,13612.00
2018-06-16T10:14:17.680Z,13184.00
2018-06-16T10:15:17.618Z,12308.00
2018-06-16T10:16:17.556Z,12228.00
2018-06-16T10:17:17.481Z,10560.00
2018-06-16T10:18:17.417Z,9824.00
2018-06-16T10:19:17.357Z,9696.00
2018-06-16T10:20:17.293Z,9508.00
2018-06-16T10:21:17.229Z,9520.00
2018-06-16T10:22:17.158Z,9904.00
2018-06-16T10:23:17.093Z,10056.00
2018-06-16T10:24:17.019Z,10796.00
2018-06-16T10:25:16.963Z,12300.00
2018-06-16T10:26:16.883Z,12716.00
2018-06-16T10:27:16.832Z,12772.00
2018-06-16T10:28:16.745Z,13060.00
2018-06-16T10:29:16.683Z,14712.00
2018-06-16T10:30:16.633Z,14952.00
2018-06-16T10:31:16.544Z,13720.00
2018-06-16T10:32:16.482Z,13088.00
2018-06-16T10:33:16.407Z,11824.00
2018-06-16T10:34:16.344Z,10888.00
2018-06-16T10:35:16.269Z,12280.00
2018-06-16T10:36:16.221Z,15612.00
2018-06-16T10:37:16.133Z,18752.00
2018-06-16T10:38:16.071Z,19424.00
2018-06-16T10:39:15.996Z,19392.00
2018-06-16T10:40:15.937Z,16700.00
2018-06-16T10:41:15.862Z,15160.00
2018-06-16T10:42:15.795Z,14280.00
2018-06-16T10:43:15.720Z,16048.00
2018-06-16T10:44:15.646Z,18304.00
2018-06-16T10:45:15.584Z,16160.00
2018-06-16T10:46:15.508Z,16412.00
2018-06-16T10:47:15.446Z,17792.00
2018-06-16T10:48:15.372Z,16744.00
2018-06-16T10:49:15.309Z,15232.00
2018-06-16T10:50:15.234Z,13524.00
2018-06-16T10:51:15.171Z,12928.00
2018-06-16T10:52:15.096Z,12100.00
2018-06-16T10:53:15.038Z,10580.00
2018-06-16T10:54:14.961Z,9336.00
2018-06-16T10:55:14.898Z,8668.00
2018-06-16T10:56:14.821Z,8296.00
2018-06-16T10:57:14.747Z,8024.00
2018-06-16T10:58:14.685Z,8060.00
2018-06-16T10:59:14.610Z,8016.00
2018-06-16T11:00:14.548Z,8036.00
2018-06-16T11:01:14.472Z,8540.00
2018-06-16T11:02:14.410Z,8864.00
2018-06-16T11:03:14.343Z,9216.00
2018-06-16T11:04:14.260Z,9952.00
2018-06-16T11:05:14.198Z,11520.00
2018-06-16T11:06:14.122Z,12240.00
2018-06-16T11:07:14.049Z,12660.00
2018-06-16T11:08:13.989Z,12764.00
2018-06-16T11:09:13.962Z,12876.00
2018-06-16T11:10:13.848Z,12632.00
2018-06-16T11:11:13.772Z,12048.00
2018-06-16T11:12:13.698Z,11476.00
2018-06-16T11:13:13.637Z,10388.00
2018-06-16T11:14:13.561Z,9044.00
2018-06-16T11:15:13.487Z,7880.00
2018-06-16T11:16:13.423Z,7540.00
2018-06-16T11:17:13.349Z,8112.00
2018-06-16T11:18:13.278Z,9596.00
2018-06-16T11:19:13.213Z,12088.00
2018-06-16T11:20:13.149Z,15228.00
2018-06-16T11:21:13.076Z,18464.00
2018-06-16T11:22:12.999Z,20160.00
2018-06-16T11:23:12.924Z,18496.00
2018-06-16T11:24:12.862Z,18432.00
2018-06-16T11:25:12.787Z,18528.00
2018-06-16T11:26:12.713Z,18496.00
2018-06-16T11:27:12.849Z,19040.00
2018-06-16T11:29:36.825Z,19104.00
2018-06-16T11:30:36.752Z,22336.00
2018-06-16T11:31:36.689Z,25056.00
2018-06-16T11:32:36.613Z,23968.00
2018-06-16T11:33:36.551Z,21920.00
2018-06-16T11:34:36.489Z,19296.00
2018-06-16T11:35:36.402Z,18304.00
2018-06-16T11:36:36.339Z,16624.00
2018-06-16T11:37:36.264Z,15532.00
2018-06-16T11:38:36.202Z,15236.00
2018-06-16T11:39:36.126Z,16884.00
2018-06-16T11:40:36.068Z,19968.00
2018-06-16T11:41:35.991Z,46496.00
2018-06-16T11:42:35.917Z,20736.00
2018-06-16T11:43:35.892Z,20192.00
2018-06-16T11:44:35.791Z,19936.00
2018-06-16T11:45:35.714Z,20224.00
2018-06-16T11:46:35.641Z,18848.00
2018-06-16T11:47:35.578Z,18144.00
2018-06-16T11:48:35.502Z,19104.00
2018-06-16T11:49:35.443Z,18016.00
2018-06-16T11:50:35.365Z,17888.00
2018-06-16T11:51:35.290Z,18464.00
2018-06-16T11:52:35.227Z,19296.00
2018-06-16T11:53:35.152Z,17312.00
2018-06-16T11:54:35.090Z,16864.00
2018-06-16T11:55:35.015Z,16436.00
2018-06-16T11:56:34.954Z,15664.00
2018-06-16T11:57:34.936Z,13700.00
2018-06-16T11:58:34.815Z,12900.00
2018-06-16T11:59:34.742Z,12704.00
2018-06-16T12:00:34.678Z,12824.00
2018-06-16T12:01:34.604Z,12588.00
2018-06-16T12:02:34.528Z,11972.00
2018-06-16T12:03:34.472Z,11576.00
2018-06-16T12:04:34.395Z,11016.00
2018-06-16T12:05:34.329Z,10156.00
2018-06-16T12:06:34.256Z,9628.00
2018-06-16T12:07:34.192Z,9316.00
2018-06-16T12:08:34.116Z,9224.00
2018-06-16T12:09:34.054Z,8924.00
2018-06-16T12:10:33.992Z,8376.00
2018-06-16T12:11:33.903Z,7680.00
2018-06-16T12:12:33.830Z,7044.00
2018-06-16T12:13:33.771Z,6464.00